Versailles, Kentucky
Current Conditions -  °F | °C
As of 11:54 AM on Saturday 20 Dec 2014 (Local Time) from KLEX Reporting Station
Overcast Overcast  
Wind Chill: 33°   Ceiling: 5500
Heat Index: 33°   Visibility: 7mi
Dew Point: 25°   Wind: 3mph
Humidity: 72%   Direction: 90°E
Pressure: 30.26"   Gusts: NA
Location:  38.05°N, 84.73°W
Report Text: KLEX 201654Z 09003KT 7SM OVC055 01/M04 A3026 RMK AO2 SLP258 T00061039
Loading
Personal Weather Stations






























Interactive Weather Map New forecast layout! Learn more

10-Day Weather Forecast

Advertisements
Track Severe Weather on mobile